createdAt,value
2023-05-11T00:01:28.045Z,100769.28
2023-05-11T00:04:00.916Z,100760.34
2023-05-11T00:06:33.237Z,100772.81
2023-05-11T00:09:05.359Z,100771.16
2023-05-11T00:11:37.749Z,100767.63
2023-05-11T00:14:09.952Z,100764.09
2023-05-11T00:16:42.210Z,100763.19
2023-05-11T00:19:14.628Z,100764.16
2023-05-11T00:21:47.057Z,100757.91
2023-05-11T00:24:19.222Z,100757.06
2023-05-11T00:26:51.552Z,100757.06
2023-05-11T00:29:23.829Z,100750.94
2023-05-11T00:31:56.659Z,100761.66
2023-05-11T00:34:30.040Z,100760.88
2023-05-11T00:37:02.146Z,100755.53
2023-05-11T00:39:40.147Z,100752.84
2023-05-11T00:42:12.446Z,100760.88
2023-05-11T00:44:44.913Z,100754.72
2023-05-11T00:47:17.563Z,100760.06
2023-05-11T00:49:50.218Z,100757.47
2023-05-11T00:52:22.546Z,100763.72
2023-05-11T00:54:54.867Z,100764.66
2023-05-11T00:57:27.261Z,100770.00
2023-05-11T01:00:01.888Z,100767.41
2023-05-11T01:02:34.261Z,100769.25
2023-05-11T01:05:06.970Z,100771.91
2023-05-11T01:07:50.045Z,100766.56
2023-05-11T01:10:42.302Z,100767.56
2023-05-11T01:13:31.740Z,100761.38
2023-05-11T01:16:26.802Z,100771.22
2023-05-11T01:19:05.808Z,100770.34
2023-05-11T01:21:39.583Z,100767.66
2023-05-11T01:24:32.120Z,100774.91
2023-05-11T01:27:22.162Z,100777.59
2023-05-11T01:29:58.286Z,100774.06
2023-05-11T01:32:33.816Z,100778.53
2023-05-11T01:35:11.031Z,100779.50
2023-05-11T01:37:48.039Z,100782.19
2023-05-11T01:40:24.818Z,100787.53
2023-05-11T01:43:12.732Z,100782.25
2023-05-11T01:45:50.488Z,100781.41
2023-05-11T01:48:25.957Z,100778.81
2023-05-11T01:51:01.625Z,100783.28
2023-05-11T01:53:37.038Z,100783.28
2023-05-11T01:56:09.913Z,100784.25
2023-05-11T01:58:42.509Z,100788.72
2023-05-11T02:01:16.701Z,100790.53
2023-05-11T02:03:50.135Z,100788.78
2023-05-11T02:06:24.168Z,100791.47
2023-05-11T02:08:57.894Z,100803.16
2023-05-11T02:11:31.214Z,100800.56
2023-05-11T02:14:05.578Z,100791.66
2023-05-11T02:16:38.490Z,100803.31
2023-05-11T02:19:12.948Z,100801.56
2023-05-11T02:21:45.847Z,100805.22
2023-05-11T02:24:19.472Z,100803.47
2023-05-11T02:26:51.640Z,100803.47
2023-05-11T02:29:23.695Z,100809.75
2023-05-11T02:31:57.305Z,100812.44
2023-05-11T02:34:33.045Z,100807.09
2023-05-11T02:37:09.709Z,100813.41
2023-05-11T02:39:44.963Z,100809.00
2023-05-11T02:42:22.029Z,100809.97
2023-05-11T02:45:02.719Z,100805.47
2023-05-11T02:47:40.707Z,100810.88
2023-05-11T02:50:13.338Z,100811.75
2023-05-11T02:52:48.733Z,100811.81
2023-05-11T02:55:22.510Z,100805.69
2023-05-11T02:57:55.228Z,100812.78
2023-05-11T03:00:27.678Z,100818.16
2023-05-11T03:03:00.333Z,100815.53
2023-05-11T03:05:32.775Z,100814.66
2023-05-11T03:08:04.910Z,100820.97
2023-05-11T03:10:39.134Z,100820.97
2023-05-11T03:13:11.580Z,100816.56
2023-05-11T03:15:44.365Z,100819.31
2023-05-11T03:18:17.610Z,100813.09
2023-05-11T03:20:50.644Z,100814.03
2023-05-11T03:23:23.641Z,100811.34
2023-05-11T03:25:56.450Z,100812.31
2023-05-11T03:28:30.310Z,100807.91
2023-05-11T03:31:12.321Z,100812.41
2023-05-11T03:33:44.587Z,100805.28
2023-05-11T03:36:20.653Z,100806.25
2023-05-11T03:38:57.843Z,100808.06
2023-05-11T03:41:34.258Z,100808.06
2023-05-11T03:44:08.477Z,100809.03
2023-05-11T03:46:50.527Z,100804.59
2023-05-11T03:49:24.379Z,100803.75
2023-05-11T03:51:57.257Z,100805.53
2023-05-11T03:54:31.286Z,100803.81
2023-05-11T03:57:03.419Z,100810.09
2023-05-11T03:59:35.549Z,100807.44
2023-05-11T04:02:08.110Z,100811.03
2023-05-11T04:04:40.265Z,100813.72
2023-05-11T04:07:13.318Z,100815.63
2023-05-11T04:09:45.565Z,100806.72
2023-05-11T04:12:17.674Z,100816.56
2023-05-11T04:14:49.841Z,100815.69
2023-05-11T04:17:22.112Z,100815.69
2023-05-11T04:19:54.179Z,100815.75
2023-05-11T04:22:26.278Z,100818.44
2023-05-11T04:24:58.567Z,100818.53
2023-05-11T04:27:34.340Z,100820.34
2023-05-11T04:30:09.472Z,100821.28
2023-05-11T04:32:41.870Z,100813.34
2023-05-11T04:35:15.281Z,100818.69
2023-05-11T04:37:47.685Z,100815.13
2023-05-11T04:40:20.090Z,100821.47
2023-05-11T04:42:54.118Z,100821.47
2023-05-11T04:45:26.509Z,100822.38
2023-05-11T04:47:58.653Z,100823.31
2023-05-11T04:50:31.669Z,100826.00
2023-05-11T04:53:03.998Z,100823.31
2023-05-11T04:55:37.374Z,100829.63
2023-05-11T04:58:09.520Z,100826.06
2023-05-11T05:00:41.969Z,100830.56
2023-05-11T05:03:14.825Z,100830.56
2023-05-11T05:05:46.967Z,100830.66
2023-05-11T05:08:19.062Z,100833.31
2023-05-11T05:10:51.226Z,100834.19
2023-05-11T05:13:23.607Z,100828.81
2023-05-11T05:15:55.733Z,100837.81
2023-05-11T05:18:27.991Z,100832.47
2023-05-11T05:21:00.348Z,100844.03
2023-05-11T05:23:32.429Z,100845.84
2023-05-11T05:26:05.781Z,100849.38
2023-05-11T05:28:40.948Z,100843.19
2023-05-11T05:31:13.958Z,100852.91
2023-05-11T05:33:46.217Z,100848.53
2023-05-11T05:36:19.671Z,100853.88
2023-05-11T05:38:53.316Z,100852.06
2023-05-11T05:41:26.431Z,100859.16
2023-05-11T05:43:59.611Z,100858.28
2023-05-11T05:46:32.277Z,100861.84
2023-05-11T05:49:04.864Z,100863.56
2023-05-11T05:51:37.052Z,100860.03
2023-05-11T05:54:09.323Z,100859.94
2023-05-11T05:56:41.573Z,100864.28
2023-05-11T05:59:14.485Z,100866.97
2023-05-11T06:01:47.549Z,100860.66
2023-05-11T06:04:21.444Z,100863.25
2023-05-11T06:06:55.885Z,100872.06
2023-05-11T06:09:28.614Z,100871.06
2023-05-11T06:12:00.744Z,100867.47
2023-05-11T06:14:33.166Z,100871.84
2023-05-11T06:17:05.771Z,100872.63
2023-05-11T06:19:38.743Z,100870.78
2023-05-11T06:22:11.042Z,100877.84
2023-05-11T06:24:43.717Z,100875.00
2023-05-11T06:27:18.219Z,100880.28
2023-05-11T06:29:50.842Z,100875.78
2023-05-11T06:32:23.215Z,100878.31
2023-05-11T06:34:56.208Z,100878.25
2023-05-11T06:37:30.103Z,100882.66
2023-05-11T06:40:02.601Z,100878.94
2023-05-11T06:42:34.805Z,100878.88
2023-05-11T06:45:13.064Z,100885.03
2023-05-11T06:47:48.130Z,100885.91
2023-05-11T06:50:21.431Z,100884.97
2023-05-11T06:52:54.486Z,100894.72
2023-05-11T06:55:27.850Z,100885.75
2023-05-11T06:58:00.116Z,100887.47
2023-05-11T07:00:32.285Z,100891.88
2023-05-11T07:03:05.266Z,100891.88
2023-05-11T07:05:38.010Z,100892.66
2023-05-11T07:08:10.119Z,100886.44
2023-05-11T07:10:42.260Z,100884.63
2023-05-11T07:13:14.536Z,100894.41
2023-05-11T07:15:46.604Z,100889.91
2023-05-11T07:18:19.805Z,100898.84
2023-05-11T07:20:51.993Z,100903.22
2023-05-11T07:23:24.182Z,100903.22
2023-05-11T07:25:58.111Z,100897.88
2023-05-11T07:28:30.178Z,100894.25
2023-05-11T07:31:02.330Z,100894.25
2023-05-11T07:33:36.933Z,100902.22
2023-05-11T07:36:09.171Z,100898.66
2023-05-11T07:38:41.419Z,100895.03
2023-05-11T07:41:13.623Z,100892.34
2023-05-11T07:43:47.166Z,100903.06
2023-05-11T07:46:19.416Z,100899.47
2023-05-11T07:48:57.487Z,100888.75
2023-05-11T07:51:36.261Z,100904.81
2023-05-11T07:54:08.459Z,100904.81
2023-05-11T07:56:40.605Z,100906.63
2023-05-11T07:59:12.870Z,100906.63
2023-05-11T08:01:45.029Z,100904.81
2023-05-11T08:04:17.365Z,100910.19
2023-05-11T08:06:49.640Z,100914.66
2023-05-11T08:09:22.073Z,100911.13
2023-05-11T08:11:56.507Z,100927.13
2023-05-11T08:14:28.652Z,100920.91
2023-05-11T08:17:00.975Z,100915.53
2023-05-11T08:19:33.159Z,100912.78
2023-05-11T08:22:05.238Z,100918.13
2023-05-11T08:24:37.483Z,100916.31
2023-05-11T08:27:10.004Z,100921.59
2023-05-11T08:29:42.067Z,100916.25
2023-05-11T08:32:14.313Z,100917.09
2023-05-11T08:34:46.667Z,100917.09
2023-05-11T08:37:19.040Z,100916.09
2023-05-11T08:39:51.475Z,100925.00
2023-05-11T08:42:27.862Z,100921.38
2023-05-11T08:45:01.331Z,100917.72
2023-05-11T08:47:33.964Z,100916.78
2023-05-11T08:50:06.910Z,100919.47
2023-05-11T08:52:39.208Z,100918.53
2023-05-11T08:55:11.310Z,100925.53
2023-05-11T08:57:44.502Z,100927.22
2023-05-11T09:00:16.756Z,100931.59
2023-05-11T09:02:49.542Z,100925.31
2023-05-11T09:05:22.359Z,100924.28
2023-05-11T09:07:57.046Z,100925.16
2023-05-11T09:10:29.404Z,100925.06
2023-05-11T09:13:01.625Z,100918.81
2023-05-11T09:15:37.202Z,100924.03
2023-05-11T09:18:11.749Z,100926.72
2023-05-11T09:20:44.617Z,100928.47
2023-05-11T09:23:17.564Z,100923.09
2023-05-11T09:25:49.899Z,100923.00
2023-05-11T09:28:26.139Z,100922.94
2023-05-11T09:30:58.520Z,100924.66
2023-05-11T09:33:31.547Z,100929.06
2023-05-11T09:36:06.297Z,100917.41
2023-05-11T09:38:38.603Z,100921.75
2023-05-11T09:41:11.785Z,100922.63
2023-05-11T09:43:44.131Z,100918.13
2023-05-11T09:46:21.276Z,100920.72
2023-05-11T09:49:02.701Z,100920.72
2023-05-11T09:51:37.001Z,100913.50
2023-05-11T09:54:19.692Z,100918.84
2023-05-11T09:56:54.387Z,100920.59
2023-05-11T09:59:39.956Z,100927.69
2023-05-11T10:02:21.673Z,100928.56
2023-05-11T10:04:54.929Z,100919.72
2023-05-11T10:07:28.484Z,100919.72
2023-05-11T10:10:01.910Z,100924.22
2023-05-11T10:12:34.842Z,100925.13
2023-05-11T10:15:08.025Z,100924.25
2023-05-11T10:17:44.781Z,100924.34
2023-05-11T10:20:17.334Z,100917.19
2023-05-11T10:22:52.350Z,100923.47
2023-05-11T10:25:26.591Z,100919.88
2023-05-11T10:27:58.921Z,100917.25
2023-05-11T10:30:32.311Z,100914.59
2023-05-11T10:33:06.535Z,100916.28
2023-05-11T10:35:39.705Z,100923.47
2023-05-11T10:38:13.229Z,100921.66
2023-05-11T10:40:46.115Z,100928.00
2023-05-11T10:43:27.511Z,100922.63
2023-05-11T10:46:18.679Z,100920.88
2023-05-11T10:48:59.283Z,100920.03
2023-05-11T10:51:31.331Z,100913.78
2023-05-11T10:54:14.565Z,100914.75
2023-05-11T10:56:57.057Z,100927.25
2023-05-11T10:59:38.717Z,100921.03
2023-05-11T11:02:10.927Z,100919.28
2023-05-11T11:04:50.198Z,100917.56
2023-05-11T11:07:22.245Z,100922.09
2023-05-11T11:10:05.176Z,100924.84
2023-05-11T11:12:37.956Z,100922.16
2023-05-11T11:15:10.260Z,100928.47
2023-05-11T11:17:43.032Z,100932.06
2023-05-11T11:20:35.162Z,100924.91
2023-05-11T11:23:27.247Z,100922.31
2023-05-11T11:25:59.344Z,100918.75
2023-05-11T11:28:51.141Z,100923.25
2023-05-11T11:31:26.556Z,100920.66
2023-05-11T11:34:20.156Z,100918.03
2023-05-11T11:36:55.296Z,100914.50
2023-05-11T11:39:42.817Z,100912.75
2023-05-11T11:42:16.177Z,100916.34
2023-05-11T11:44:49.108Z,100914.59
2023-05-11T11:47:24.284Z,100909.31
2023-05-11T11:50:11.508Z,100911.97
2023-05-11T11:52:43.726Z,100915.59
2023-05-11T11:55:36.418Z,100912.06
2023-05-11T11:58:08.433Z,100913.88
2023-05-11T12:00:41.980Z,100913.88
2023-05-11T12:03:22.965Z,100918.34
2023-05-11T12:05:59.470Z,100922.00
2023-05-11T12:08:32.670Z,100922.84
2023-05-11T12:11:05.690Z,100927.38
2023-05-11T12:13:38.714Z,100932.72
2023-05-11T12:16:12.707Z,100930.03
2023-05-11T12:18:55.063Z,100934.53
2023-05-11T12:21:28.308Z,100940.84
2023-05-11T12:24:02.308Z,100938.16
2023-05-11T12:26:35.781Z,100938.22
2023-05-11T12:29:13.846Z,100938.16
2023-05-11T12:31:48.866Z,100931.94
2023-05-11T12:34:22.942Z,100940.84
2023-05-11T12:36:55.386Z,100934.53
2023-05-11T12:39:27.872Z,100936.34
2023-05-11T12:42:00.086Z,100939.78
2023-05-11T12:44:32.824Z,100937.03
2023-05-11T12:47:05.224Z,100932.66
2023-05-11T12:49:37.913Z,100930.81
2023-05-11T12:52:11.171Z,100928.06
2023-05-11T12:54:48.149Z,100928.06
2023-05-11T12:57:27.304Z,100929.88
2023-05-11T13:00:12.965Z,100928.91
2023-05-11T13:02:45.765Z,100922.69
2023-05-11T13:05:21.638Z,100918.19
2023-05-11T13:08:00.658Z,100914.66
2023-05-11T13:10:32.745Z,100917.34
2023-05-11T13:13:04.877Z,100911.13
2023-05-11T13:15:50.044Z,100907.47
2023-05-11T13:18:23.194Z,100901.25
2023-05-11T13:21:08.726Z,100894.06
2023-05-11T13:23:41.033Z,100896.75
2023-05-11T13:26:23.083Z,100903.94
2023-05-11T13:29:08.782Z,100906.63
2023-05-11T13:31:43.901Z,100908.44
2023-05-11T13:34:16.461Z,100903.09
2023-05-11T13:36:49.159Z,100910.16
2023-05-11T13:39:21.975Z,100910.16
2023-05-11T13:41:55.980Z,100904.78
2023-05-11T13:44:29.586Z,100918.19
2023-05-11T13:47:01.766Z,100909.31
2023-05-11T13:49:33.884Z,100912.84
2023-05-11T13:52:06.244Z,100909.22
2023-05-11T13:54:39.546Z,100903.88
2023-05-11T13:57:11.670Z,100904.72
2023-05-11T13:59:43.904Z,100899.44
2023-05-11T14:02:16.085Z,100900.25
2023-05-11T14:04:48.331Z,100907.31
2023-05-11T14:07:22.711Z,100903.72
2023-05-11T14:09:56.165Z,100904.50
2023-05-11T14:12:28.809Z,100907.16
2023-05-11T14:15:00.975Z,100902.59
2023-05-11T14:17:33.720Z,100904.31
2023-05-11T14:20:06.688Z,100897.16
2023-05-11T14:22:39.731Z,100898.97
2023-05-11T14:25:11.914Z,100901.56
2023-05-11T14:27:44.177Z,100901.50
2023-05-11T14:30:16.509Z,100902.34
2023-05-11T14:32:48.739Z,100903.13
2023-05-11T14:35:21.736Z,100897.69
2023-05-11T14:37:54.810Z,100892.25
2023-05-11T14:40:26.942Z,100893.91
2023-05-11T14:42:59.133Z,100892.91
2023-05-11T14:45:32.579Z,100884.78
2023-05-11T14:48:05.506Z,100880.22
2023-05-11T14:50:37.829Z,100883.69
2023-05-11T14:53:10.293Z,100887.13
2023-05-11T14:55:42.500Z,100881.69
2023-05-11T14:58:15.758Z,100883.44
2023-05-11T15:00:47.925Z,100884.13
2023-05-11T15:03:20.147Z,100885.53
2023-05-11T15:05:52.354Z,100885.16
2023-05-11T15:08:30.227Z,100882.91
2023-05-11T15:11:03.005Z,100891.59
2023-05-11T15:13:35.265Z,100896.50
2023-05-11T15:16:07.549Z,100890.84
2023-05-11T15:18:42.754Z,100888.09
2023-05-11T15:21:16.377Z,100894.13
2023-05-11T15:23:49.620Z,100892.81
2023-05-11T15:26:22.959Z,100900.53
2023-05-11T15:28:55.329Z,100890.81
2023-05-11T15:31:28.613Z,100892.75
2023-05-11T15:34:01.586Z,100900.88
2023-05-11T15:36:34.028Z,100903.72
2023-05-11T15:39:06.982Z,100895.94
2023-05-11T15:41:39.269Z,100900.59
2023-05-11T15:44:11.446Z,100895.03
2023-05-11T15:46:43.502Z,100901.91
2023-05-11T15:49:16.851Z,100895.41
2023-05-11T15:51:49.068Z,100894.38
2023-05-11T15:54:21.181Z,100894.09
2023-05-11T15:56:53.608Z,100899.28
2023-05-11T15:59:25.832Z,100893.72
2023-05-11T16:01:58.054Z,100910.44
2023-05-11T16:04:30.381Z,100903.69
2023-05-11T16:07:02.584Z,100906.88
2023-05-11T16:09:35.785Z,100903.72
2023-05-11T16:12:07.964Z,100912.09
2023-05-11T16:14:40.432Z,100909.00
2023-05-11T16:17:12.689Z,100907.56
2023-05-11T16:19:44.842Z,100909.72
2023-05-11T16:22:16.906Z,100902.81
2023-05-11T16:24:49.086Z,100912.00
2023-05-11T16:27:21.196Z,100910.41
2023-05-11T16:29:53.327Z,100912.22
2023-05-11T16:32:25.822Z,100907.63
2023-05-11T16:34:58.263Z,100916.53
2023-05-11T16:37:30.329Z,100901.97
2023-05-11T16:40:02.885Z,100920.50
2023-05-11T16:42:39.772Z,100909.56
2023-05-11T16:45:12.785Z,100922.81
2023-05-11T16:47:47.897Z,100929.84
2023-05-11T16:50:20.344Z,100934.16
2023-05-11T16:52:52.953Z,100941.28
2023-05-11T16:55:25.074Z,100943.88
2023-05-11T16:57:57.357Z,100949.16
2023-05-11T17:00:29.513Z,100953.69
2023-05-11T17:03:01.941Z,100952.03
2023-05-11T17:05:34.320Z,100962.28
2023-05-11T17:08:06.372Z,100974.25
2023-05-11T17:10:38.427Z,100969.25
2023-05-11T17:13:10.564Z,100980.34
2023-05-11T17:15:42.699Z,100984.38
2023-05-11T17:18:14.927Z,100982.03
2023-05-11T17:20:51.741Z,100981.50
2023-05-11T17:23:26.873Z,100989.06
2023-05-11T17:25:59.310Z,100984.88
2023-05-11T17:28:31.687Z,100984.28
2023-05-11T17:31:10.049Z,100981.94
2023-05-11T17:33:43.000Z,100985.75
2023-05-11T17:36:15.206Z,100987.84
2023-05-11T17:38:47.605Z,100987.13
2023-05-11T17:41:20.433Z,100987.28
2023-05-11T17:43:52.695Z,100979.47
2023-05-11T17:46:25.383Z,100977.81
2023-05-11T17:48:57.810Z,100981.63
2023-05-11T17:51:32.997Z,100987.16
2023-05-11T17:54:05.185Z,101000.75
2023-05-11T17:56:37.346Z,101000.06
2023-05-11T17:59:09.567Z,100995.72
2023-05-11T18:01:42.382Z,101003.00
2023-05-11T18:04:15.357Z,101003.16
2023-05-11T18:06:47.636Z,101003.31
2023-05-11T18:09:20.266Z,101008.84
2023-05-11T18:11:52.432Z,101009.03
2023-05-11T18:14:24.537Z,101009.19
2023-05-11T18:16:56.713Z,101016.44
2023-05-11T18:19:28.836Z,101012.97
2023-05-11T18:22:01.186Z,101013.13
2023-05-11T18:24:33.424Z,101020.41
2023-05-11T18:27:05.606Z,101016.16
2023-05-11T18:29:37.834Z,101018.84
2023-05-11T18:32:10.289Z,101016.31
2023-05-11T18:34:42.593Z,101016.41
2023-05-11T18:37:14.929Z,101026.34
2023-05-11T18:39:47.811Z,101035.41
2023-05-11T18:42:20.232Z,101033.66
2023-05-11T18:44:57.341Z,101035.50
2023-05-11T18:47:29.757Z,101041.88
2023-05-11T18:50:02.240Z,101049.06
2023-05-11T18:52:34.713Z,101041.16
2023-05-11T18:55:07.096Z,101053.72
2023-05-11T18:57:40.184Z,101049.38
2023-05-11T19:00:12.444Z,101053.88
2023-05-11T19:02:45.404Z,101055.78
2023-05-11T19:05:17.667Z,101056.72
2023-05-11T19:07:49.748Z,101063.03
2023-05-11T19:10:24.584Z,101064.03
2023-05-11T19:12:56.833Z,101072.16
2023-05-11T19:15:28.915Z,101075.78
2023-05-11T19:18:01.203Z,101085.66
2023-05-11T19:20:34.082Z,101081.31
2023-05-11T19:23:06.321Z,101087.63
2023-05-11T19:25:38.447Z,101087.69
2023-05-11T19:28:10.660Z,101091.31
2023-05-11T19:30:42.779Z,101094.03
2023-05-11T19:33:15.038Z,101095.94
2023-05-11T19:35:47.286Z,101106.66
2023-05-11T19:38:19.403Z,101115.66
2023-05-11T19:40:52.047Z,101118.41
2023-05-11T19:43:24.445Z,101128.25
2023-05-11T19:45:56.582Z,101129.22
2023-05-11T19:48:28.993Z,101130.16
2023-05-11T19:51:01.349Z,101126.69
2023-05-11T19:53:33.654Z,101141.00
2023-05-11T19:56:06.773Z,101139.31
2023-05-11T19:58:38.996Z,101148.28
2023-05-11T20:01:11.320Z,101158.13
2023-05-11T20:03:43.755Z,101160.88
2023-05-11T20:06:16.180Z,101160.00
2023-05-11T20:08:48.938Z,101158.28
2023-05-11T20:11:22.240Z,101167.25
2023-05-11T20:13:54.657Z,101172.69
2023-05-11T20:16:27.169Z,101170.00
2023-05-11T20:18:59.723Z,101170.97
2023-05-11T20:21:32.171Z,101182.63
2023-05-11T20:24:04.784Z,101186.22
2023-05-11T20:26:37.159Z,101189.88
2023-05-11T20:29:10.394Z,101203.28
2023-05-11T20:31:42.638Z,101197.03
2023-05-11T20:34:14.983Z,101197.09
2023-05-11T20:36:48.837Z,101204.28
2023-05-11T20:39:21.314Z,101208.72
2023-05-11T20:41:53.540Z,101210.41
2023-05-11T20:44:25.990Z,101214.94
2023-05-11T20:46:58.139Z,101210.41
2023-05-11T20:49:38.186Z,101211.31
2023-05-11T20:52:13.820Z,101209.56
2023-05-11T20:54:48.126Z,101211.31
2023-05-11T20:57:20.532Z,101207.66
2023-05-11T21:02:29.419Z,101202.31
2023-05-11T21:05:02.775Z,101203.19
2023-05-11T21:07:35.019Z,101203.19
2023-05-11T21:10:07.839Z,101207.66
2023-05-11T21:12:39.957Z,101207.66
2023-05-11T21:15:12.048Z,101207.66
2023-05-11T21:17:44.332Z,101213.03
2023-05-11T21:20:17.548Z,101217.47
2023-05-11T21:22:50.098Z,101216.59
2023-05-11T21:25:22.663Z,101219.28
2023-05-11T21:27:55.539Z,101224.66
2023-05-11T21:30:28.309Z,101226.44
2023-05-11T21:33:00.440Z,101229.13
2023-05-11T21:35:33.213Z,101235.38
2023-05-11T21:38:05.823Z,101234.47
2023-05-11T21:40:38.029Z,101234.47
2023-05-11T21:43:11.493Z,101234.47
2023-05-11T21:45:46.944Z,101238.13
2023-05-11T21:48:21.646Z,101234.53
2023-05-11T21:50:54.569Z,101226.50
2023-05-11T21:53:27.202Z,101226.56
2023-05-11T21:55:59.569Z,101226.56
2023-05-11T21:58:31.944Z,101234.63
2023-05-11T22:01:06.624Z,101242.75
2023-05-11T22:03:39.317Z,101240.94
2023-05-11T22:06:11.552Z,101237.47
2023-05-11T22:08:44.994Z,101238.25
2023-05-11T22:11:21.643Z,101247.22
2023-05-11T22:13:53.812Z,101244.63
2023-05-11T22:16:26.258Z,101250.94
2023-05-11T22:18:59.158Z,101251.78
2023-05-11T22:21:31.385Z,101249.13
2023-05-11T22:24:04.373Z,101253.63
2023-05-11T22:26:36.931Z,101252.72
2023-05-11T22:29:09.496Z,101251.00
2023-05-11T22:31:42.880Z,101257.28
2023-05-11T22:34:17.137Z,101259.97
2023-05-11T22:36:50.229Z,101262.66
2023-05-11T22:39:23.340Z,101268.00
2023-05-11T22:41:55.753Z,101262.72
2023-05-11T22:44:28.460Z,101262.72
2023-05-11T22:47:02.379Z,101264.59
2023-05-11T22:49:34.500Z,101260.13
2023-05-11T22:52:06.814Z,101257.50
2023-05-11T22:54:38.993Z,101260.25
2023-05-11T22:57:13.589Z,101270.97
2023-05-11T22:59:46.885Z,101273.72
2023-05-11T23:02:19.080Z,101275.53
2023-05-11T23:04:52.314Z,101279.06
2023-05-11T23:07:26.206Z,101276.47
2023-05-11T23:09:58.451Z,101276.47
2023-05-11T23:12:30.640Z,101282.78
2023-05-11T23:15:02.854Z,101284.66
2023-05-11T23:17:35.098Z,101275.72
2023-05-11T23:20:07.466Z,101279.38
2023-05-11T23:22:39.510Z,101289.19
2023-05-11T23:25:11.760Z,101289.19
2023-05-11T23:27:44.033Z,101281.22
2023-05-11T23:30:16.219Z,101276.81
2023-05-11T23:32:48.435Z,101285.78
2023-05-11T23:35:21.619Z,101285.78
2023-05-11T23:37:54.408Z,101280.50
2023-05-11T23:40:28.467Z,101283.19
2023-05-11T23:43:00.697Z,101284.13
2023-05-11T23:45:32.998Z,101286.88
2023-05-11T23:48:05.432Z,101291.34
2023-05-11T23:50:37.619Z,101284.28
2023-05-11T23:53:09.716Z,101289.63
2023-05-11T23:55:41.977Z,101298.59
2023-05-11T23:58:14.326Z,101292.38
